sensor_id;sensor_type;location;lat;lon;timestamp;P1;durP1;ratioP1;P2;durP2;ratioP2
4051;SDS011;2040;50.924;11.604;2023-03-30T00:00:57;1.50;;;1.37;;
4051;SDS011;2040;50.924;11.604;2023-03-30T00:03:24;2.67;;;1.83;;
4051;SDS011;2040;50.924;11.604;2023-03-30T00:05:51;5.50;;;1.80;;
4051;SDS011;2040;50.924;11.604;2023-03-30T00:08:20;3.63;;;1.70;;
4051;SDS011;2040;50.924;11.604;2023-03-30T00:10:51;3.37;;;1.77;;
4051;SDS011;2040;50.924;11.604;2023-03-30T00:13:19;15.20;;;1.77;;
4051;SDS011;2040;50.924;11.604;2023-03-30T00:15:45;4.17;;;1.83;;
4051;SDS011;2040;50.924;11.604;2023-03-30T00:18:10;8.63;;;1.27;;
4051;SDS011;2040;50.924;11.604;2023-03-30T00:20:36;3.53;;;1.90;;
4051;SDS011;2040;50.924;11.604;2023-03-30T00:23:06;4.23;;;1.50;;
4051;SDS011;2040;50.924;11.604;2023-03-30T00:25:32;2.23;;;1.50;;
4051;SDS011;2040;50.924;11.604;2023-03-30T00:27:58;2.40;;;1.60;;
4051;SDS011;2040;50.924;11.604;2023-03-30T00:30:23;4.17;;;1.80;;
4051;SDS011;2040;50.924;11.604;2023-03-30T00:32:49;5.17;;;1.40;;
4051;SDS011;2040;50.924;11.604;2023-03-30T00:35:15;3.70;;;1.40;;
4051;SDS011;2040;50.924;11.604;2023-03-30T00:37:41;4.57;;;1.90;;
4051;SDS011;2040;50.924;11.604;2023-03-30T00:40:12;6.90;;;1.90;;
4051;SDS011;2040;50.924;11.604;2023-03-30T00:42:44;5.27;;;1.70;;
4051;SDS011;2040;50.924;11.604;2023-03-30T00:45:15;2.33;;;1.40;;
4051;SDS011;2040;50.924;11.604;2023-03-30T00:47:47;3.63;;;1.47;;
4051;SDS011;2040;50.924;11.604;2023-03-30T00:50:33;2.00;;;1.37;;
4051;SDS011;2040;50.924;11.604;2023-03-30T00:53:04;3.67;;;1.90;;
4051;SDS011;2040;50.924;11.604;2023-03-30T00:55:34;2.47;;;1.40;;
4051;SDS011;2040;50.924;11.604;2023-03-30T00:58:02;1.33;;;1.20;;
4051;SDS011;2040;50.924;11.604;2023-03-30T01:00:29;1.83;;;1.70;;
4051;SDS011;2040;50.924;11.604;2023-03-30T01:02:58;2.10;;;1.40;;
4051;SDS011;2040;50.924;11.604;2023-03-30T01:05:26;2.70;;;1.90;;
4051;SDS011;2040;50.924;11.604;2023-03-30T01:07:53;3.10;;;1.50;;
4051;SDS011;2040;50.924;11.604;2023-03-30T01:10:22;5.30;;;1.40;;
4051;SDS011;2040;50.924;11.604;2023-03-30T01:12:48;4.63;;;1.77;;
4051;SDS011;2040;50.924;11.604;2023-03-30T01:15:14;4.07;;;1.60;;
4051;SDS011;2040;50.924;11.604;2023-03-30T01:17:44;1.77;;;1.30;;
4051;SDS011;2040;50.924;11.604;2023-03-30T01:23:31;4.27;;;1.53;;
4051;SDS011;2040;50.924;11.604;2023-03-30T01:28:54;3.80;;;1.33;;
4051;SDS011;2040;50.924;11.604;2023-03-30T01:32:07;1.77;;;1.10;;
4051;SDS011;2040;50.924;11.604;2023-03-30T01:43:37;3.20;;;1.60;;
4051;SDS011;2040;50.924;11.604;2023-03-30T01:46:19;3.20;;;1.50;;
4051;SDS011;2040;50.924;11.604;2023-03-30T01:48:50;1.63;;;1.50;;
4051;SDS011;2040;50.924;11.604;2023-03-30T01:51:37;2.40;;;1.37;;
4051;SDS011;2040;50.924;11.604;2023-03-30T01:54:11;3.03;;;1.43;;
4051;SDS011;2040;50.924;11.604;2023-03-30T01:56:44;1.27;;;1.17;;
4051;SDS011;2040;50.924;11.604;2023-03-30T01:59:28;2.13;;;1.40;;
4051;SDS011;2040;50.924;11.604;2023-03-30T02:01:58;11.37;;;1.53;;
4051;SDS011;2040;50.924;11.604;2023-03-30T02:04:28;1.53;;;1.30;;
4051;SDS011;2040;50.924;11.604;2023-03-30T02:06:58;3.53;;;1.60;;
4051;SDS011;2040;50.924;11.604;2023-03-30T02:09:28;4.70;;;1.67;;
4051;SDS011;2040;50.924;11.604;2023-03-30T02:11:55;1.50;;;1.03;;
4051;SDS011;2040;50.924;11.604;2023-03-30T02:14:22;1.50;;;1.40;;
4051;SDS011;2040;50.924;11.604;2023-03-30T02:16:59;6.50;;;1.37;;
4051;SDS011;2040;50.924;11.604;2023-03-30T02:19:30;1.20;;;1.00;;
4051;SDS011;2040;50.924;11.604;2023-03-30T02:21:55;8.73;;;2.10;;
4051;SDS011;2040;50.924;11.604;2023-03-30T02:24:23;2.83;;;1.53;;
4051;SDS011;2040;50.924;11.604;2023-03-30T02:26:51;1.70;;;1.23;;
4051;SDS011;2040;50.924;11.604;2023-03-30T02:29:19;1.90;;;1.30;;
4051;SDS011;2040;50.924;11.604;2023-03-30T02:31:47;2.43;;;1.20;;
4051;SDS011;2040;50.924;11.604;2023-03-30T02:53:12;3.13;;;1.57;;
4051;SDS011;2040;50.924;11.604;2023-03-30T02:56:02;3.73;;;1.70;;
4051;SDS011;2040;50.924;11.604;2023-03-30T03:04:04;5.40;;;2.07;;
4051;SDS011;2040;50.924;11.604;2023-03-30T03:06:31;5.27;;;2.23;;
4051;SDS011;2040;50.924;11.604;2023-03-30T03:08:57;2.10;;;1.30;;
4051;SDS011;2040;50.924;11.604;2023-03-30T03:11:23;2.33;;;1.43;;
4051;SDS011;2040;50.924;11.604;2023-03-30T03:13:49;1.97;;;1.30;;
4051;SDS011;2040;50.924;11.604;2023-03-30T03:16:15;6.53;;;1.57;;
4051;SDS011;2040;50.924;11.604;2023-03-30T03:18:41;2.10;;;1.27;;
4051;SDS011;2040;50.924;11.604;2023-03-30T03:21:07;4.40;;;1.60;;
4051;SDS011;2040;50.924;11.604;2023-03-30T03:23:34;2.73;;;1.83;;
4051;SDS011;2040;50.924;11.604;2023-03-30T03:26:00;2.47;;;1.43;;
4051;SDS011;2040;50.924;11.604;2023-03-30T03:28:26;2.30;;;1.33;;
4051;SDS011;2040;50.924;11.604;2023-03-30T03:30:53;2.17;;;1.40;;
4051;SDS011;2040;50.924;11.604;2023-03-30T03:33:19;1.57;;;1.27;;
4051;SDS011;2040;50.924;11.604;2023-03-30T03:35:45;2.03;;;1.10;;
4051;SDS011;2040;50.924;11.604;2023-03-30T03:38:11;3.73;;;1.50;;
4051;SDS011;2040;50.924;11.604;2023-03-30T03:40:37;1.73;;;1.17;;
4051;SDS011;2040;50.924;11.604;2023-03-30T03:43:03;2.37;;;1.50;;
4051;SDS011;2040;50.924;11.604;2023-03-30T03:45:29;2.07;;;1.40;;
4051;SDS011;2040;50.924;11.604;2023-03-30T03:47:55;2.60;;;1.60;;
4051;SDS011;2040;50.924;11.604;2023-03-30T03:50:21;2.73;;;1.50;;
4051;SDS011;2040;50.924;11.604;2023-03-30T03:52:46;4.90;;;1.40;;
4051;SDS011;2040;50.924;11.604;2023-03-30T03:55:12;4.17;;;2.00;;
4051;SDS011;2040;50.924;11.604;2023-03-30T03:57:38;11.30;;;1.77;;
4051;SDS011;2040;50.924;11.604;2023-03-30T04:00:04;1.90;;;1.57;;
4051;SDS011;2040;50.924;11.604;2023-03-30T04:02:39;8.20;;;1.67;;
4051;SDS011;2040;50.924;11.604;2023-03-30T04:05:08;2.20;;;1.13;;
4051;SDS011;2040;50.924;11.604;2023-03-30T04:07:34;4.07;;;1.30;;
4051;SDS011;2040;50.924;11.604;2023-03-30T04:10:01;6.80;;;1.70;;
4051;SDS011;2040;50.924;11.604;2023-03-30T04:12:28;2.33;;;1.60;;
4051;SDS011;2040;50.924;11.604;2023-03-30T04:14:55;6.03;;;1.60;;
4051;SDS011;2040;50.924;11.604;2023-03-30T04:17:20;1.93;;;1.30;;
4051;SDS011;2040;50.924;11.604;2023-03-30T04:19:48;5.67;;;2.10;;
4051;SDS011;2040;50.924;11.604;2023-03-30T04:22:18;5.40;;;1.90;;
4051;SDS011;2040;50.924;11.604;2023-03-30T04:24:44;4.37;;;1.50;;
4051;SDS011;2040;50.924;11.604;2023-03-30T04:27:10;1.50;;;1.10;;
4051;SDS011;2040;50.924;11.604;2023-03-30T04:29:38;3.53;;;1.43;;
4051;SDS011;2040;50.924;11.604;2023-03-30T04:32:05;3.47;;;1.63;;
4051;SDS011;2040;50.924;11.604;2023-03-30T04:34:31;6.87;;;1.67;;
4051;SDS011;2040;50.924;11.604;2023-03-30T04:36:57;2.90;;;1.10;;
4051;SDS011;2040;50.924;11.604;2023-03-30T04:39:22;6.00;;;1.37;;
4051;SDS011;2040;50.924;11.604;2023-03-30T04:41:49;2.40;;;1.10;;
4051;SDS011;2040;50.924;11.604;2023-03-30T04:44:16;1.23;;;1.13;;
4051;SDS011;2040;50.924;11.604;2023-03-30T04:46:44;3.70;;;1.47;;
4051;SDS011;2040;50.924;11.604;2023-03-30T04:49:10;2.17;;;1.20;;
4051;SDS011;2040;50.924;11.604;2023-03-30T04:51:36;3.70;;;1.10;;
4051;SDS011;2040;50.924;11.604;2023-03-30T04:54:01;4.93;;;1.30;;
4051;SDS011;2040;50.924;11.604;2023-03-30T04:56:27;10.53;;;1.47;;
4051;SDS011;2040;50.924;11.604;2023-03-30T04:58:53;5.30;;;1.30;;
4051;SDS011;2040;50.924;11.604;2023-03-30T05:01:18;3.70;;;1.50;;
4051;SDS011;2040;50.924;11.604;2023-03-30T05:03:44;2.20;;;1.67;;
4051;SDS011;2040;50.924;11.604;2023-03-30T05:06:10;7.03;;;1.73;;
4051;SDS011;2040;50.924;11.604;2023-03-30T05:08:37;8.63;;;1.50;;
4051;SDS011;2040;50.924;11.604;2023-03-30T05:11:02;5.47;;;1.67;;
4051;SDS011;2040;50.924;11.604;2023-03-30T05:13:31;3.40;;;1.43;;
4051;SDS011;2040;50.924;11.604;2023-03-30T05:15:57;2.13;;;1.20;;
4051;SDS011;2040;50.924;11.604;2023-03-30T05:18:22;11.10;;;1.70;;
4051;SDS011;2040;50.924;11.604;2023-03-30T05:20:48;4.70;;;2.37;;
4051;SDS011;2040;50.924;11.604;2023-03-30T05:23:14;1.80;;;1.17;;
4051;SDS011;2040;50.924;11.604;2023-03-30T05:25:43;3.97;;;1.43;;
4051;SDS011;2040;50.924;11.604;2023-03-30T05:28:10;3.47;;;1.97;;
4051;SDS011;2040;50.924;11.604;2023-03-30T05:30:36;3.07;;;1.70;;
4051;SDS011;2040;50.924;11.604;2023-03-30T05:33:01;3.03;;;1.50;;
4051;SDS011;2040;50.924;11.604;2023-03-30T05:35:27;5.43;;;1.80;;
4051;SDS011;2040;50.924;11.604;2023-03-30T05:37:53;5.77;;;1.80;;
4051;SDS011;2040;50.924;11.604;2023-03-30T05:40:20;3.87;;;1.93;;
4051;SDS011;2040;50.924;11.604;2023-03-30T05:42:45;5.70;;;1.53;;
4051;SDS011;2040;50.924;11.604;2023-03-30T05:45:11;1.97;;;1.87;;
4051;SDS011;2040;50.924;11.604;2023-03-30T05:47:36;3.37;;;1.67;;
4051;SDS011;2040;50.924;11.604;2023-03-30T05:50:02;3.47;;;1.87;;
4051;SDS011;2040;50.924;11.604;2023-03-30T05:52:28;2.40;;;2.13;;
4051;SDS011;2040;50.924;11.604;2023-03-30T05:54:53;6.40;;;1.63;;
4051;SDS011;2040;50.924;11.604;2023-03-30T05:57:19;9.07;;;1.83;;
4051;SDS011;2040;50.924;11.604;2023-03-30T05:59:45;6.50;;;1.63;;
4051;SDS011;2040;50.924;11.604;2023-03-30T06:02:11;3.20;;;1.73;;
4051;SDS011;2040;50.924;11.604;2023-03-30T06:04:38;8.63;;;2.27;;
4051;SDS011;2040;50.924;11.604;2023-03-30T06:07:03;4.77;;;1.93;;
4051;SDS011;2040;50.924;11.604;2023-03-30T06:09:30;8.00;;;2.03;;
4051;SDS011;2040;50.924;11.604;2023-03-30T06:11:56;4.77;;;2.20;;
4051;SDS011;2040;50.924;11.604;2023-03-30T06:14:22;7.10;;;1.90;;
4051;SDS011;2040;50.924;11.604;2023-03-30T06:16:48;3.23;;;1.30;;
4051;SDS011;2040;50.924;11.604;2023-03-30T06:19:13;3.50;;;1.70;;
4051;SDS011;2040;50.924;11.604;2023-03-30T06:21:40;2.00;;;1.43;;
4051;SDS011;2040;50.924;11.604;2023-03-30T06:24:06;3.10;;;1.50;;
4051;SDS011;2040;50.924;11.604;2023-03-30T06:26:31;9.23;;;1.80;;
4051;SDS011;2040;50.924;11.604;2023-03-30T06:28:57;3.60;;;1.93;;
4051;SDS011;2040;50.924;11.604;2023-03-30T06:31:22;5.50;;;2.10;;
4051;SDS011;2040;50.924;11.604;2023-03-30T06:33:49;4.03;;;1.93;;
4051;SDS011;2040;50.924;11.604;2023-03-30T06:36:15;2.13;;;1.60;;
4051;SDS011;2040;50.924;11.604;2023-03-30T06:38:41;8.87;;;2.07;;
4051;SDS011;2040;50.924;11.604;2023-03-30T06:41:09;5.70;;;1.53;;
4051;SDS011;2040;50.924;11.604;2023-03-30T06:43:36;5.33;;;2.20;;
4051;SDS011;2040;50.924;11.604;2023-03-30T06:46:02;3.60;;;1.73;;
4051;SDS011;2040;50.924;11.604;2023-03-30T06:48:29;2.83;;;2.00;;
4051;SDS011;2040;50.924;11.604;2023-03-30T06:50:54;3.40;;;1.70;;
4051;SDS011;2040;50.924;11.604;2023-03-30T06:53:20;4.83;;;1.77;;
4051;SDS011;2040;50.924;11.604;2023-03-30T06:55:54;6.13;;;1.83;;
4051;SDS011;2040;50.924;11.604;2023-03-30T06:58:21;4.03;;;2.03;;
4051;SDS011;2040;50.924;11.604;2023-03-30T07:00:48;3.90;;;1.70;;
4051;SDS011;2040;50.924;11.604;2023-03-30T07:03:14;4.67;;;1.67;;
4051;SDS011;2040;50.924;11.604;2023-03-30T07:05:43;3.80;;;2.20;;
4051;SDS011;2040;50.924;11.604;2023-03-30T07:08:12;5.53;;;2.40;;
4051;SDS011;2040;50.924;11.604;2023-03-30T07:10:38;2.70;;;1.77;;
4051;SDS011;2040;50.924;11.604;2023-03-30T07:13:04;5.30;;;2.03;;
4051;SDS011;2040;50.924;11.604;2023-03-30T07:15:31;2.63;;;1.90;;
4051;SDS011;2040;50.924;11.604;2023-03-30T07:17:57;2.33;;;1.30;;
4051;SDS011;2040;50.924;11.604;2023-03-30T07:20:23;5.93;;;2.00;;
4051;SDS011;2040;50.924;11.604;2023-03-30T07:22:48;4.77;;;1.70;;
4051;SDS011;2040;50.924;11.604;2023-03-30T07:25:14;2.83;;;1.70;;
4051;SDS011;2040;50.924;11.604;2023-03-30T07:27:40;5.83;;;2.13;;
4051;SDS011;2040;50.924;11.604;2023-03-30T07:30:06;5.63;;;1.87;;
4051;SDS011;2040;50.924;11.604;2023-03-30T07:32:34;2.60;;;1.20;;
4051;SDS011;2040;50.924;11.604;2023-03-30T07:35:00;2.97;;;1.40;;
4051;SDS011;2040;50.924;11.604;2023-03-30T07:37:25;9.37;;;2.70;;
4051;SDS011;2040;50.924;11.604;2023-03-30T07:39:52;2.87;;;1.60;;
4051;SDS011;2040;50.924;11.604;2023-03-30T07:42:18;6.53;;;2.20;;
4051;SDS011;2040;50.924;11.604;2023-03-30T07:44:44;4.43;;;1.77;;
4051;SDS011;2040;50.924;11.604;2023-03-30T07:47:10;4.30;;;2.30;;
4051;SDS011;2040;50.924;11.604;2023-03-30T07:49:35;4.73;;;1.80;;
4051;SDS011;2040;50.924;11.604;2023-03-30T07:52:01;6.93;;;1.70;;
4051;SDS011;2040;50.924;11.604;2023-03-30T07:54:27;5.30;;;1.57;;
4051;SDS011;2040;50.924;11.604;2023-03-30T07:56:52;7.60;;;1.87;;
4051;SDS011;2040;50.924;11.604;2023-03-30T07:59:18;2.40;;;1.77;;
4051;SDS011;2040;50.924;11.604;2023-03-30T08:01:44;6.03;;;2.00;;
4051;SDS011;2040;50.924;11.604;2023-03-30T08:04:11;3.60;;;2.10;;
4051;SDS011;2040;50.924;11.604;2023-03-30T08:06:37;6.67;;;2.00;;
4051;SDS011;2040;50.924;11.604;2023-03-30T08:09:03;7.90;;;1.50;;
4051;SDS011;2040;50.924;11.604;2023-03-30T08:11:29;6.80;;;2.40;;
4051;SDS011;2040;50.924;11.604;2023-03-30T08:13:55;3.20;;;1.60;;
4051;SDS011;2040;50.924;11.604;2023-03-30T08:16:21;5.00;;;1.67;;
4051;SDS011;2040;50.924;11.604;2023-03-30T08:18:47;5.40;;;1.67;;
4051;SDS011;2040;50.924;11.604;2023-03-30T08:21:12;1.93;;;1.53;;
4051;SDS011;2040;50.924;11.604;2023-03-30T08:23:38;6.67;;;2.00;;
4051;SDS011;2040;50.924;11.604;2023-03-30T08:26:04;7.43;;;2.00;;
4051;SDS011;2040;50.924;11.604;2023-03-30T08:28:30;9.60;;;2.77;;
4051;SDS011;2040;50.924;11.604;2023-03-30T08:31:01;4.30;;;2.10;;
4051;SDS011;2040;50.924;11.604;2023-03-30T08:33:27;5.77;;;1.80;;
4051;SDS011;2040;50.924;11.604;2023-03-30T08:35:53;4.20;;;1.63;;
4051;SDS011;2040;50.924;11.604;2023-03-30T08:38:18;6.20;;;1.43;;
4051;SDS011;2040;50.924;11.604;2023-03-30T08:40:45;3.23;;;1.57;;
4051;SDS011;2040;50.924;11.604;2023-03-30T08:45:47;5.80;;;1.60;;
4051;SDS011;2040;50.924;11.604;2023-03-30T08:48:18;6.00;;;1.80;;
4051;SDS011;2040;50.924;11.604;2023-03-30T08:50:49;7.27;;;1.90;;
4051;SDS011;2040;50.924;11.604;2023-03-30T08:53:20;10.03;;;1.57;;
4051;SDS011;2040;50.924;11.604;2023-03-30T08:55:56;3.10;;;1.70;;
4051;SDS011;2040;50.924;11.604;2023-03-30T08:58:38;3.00;;;1.90;;
4051;SDS011;2040;50.924;11.604;2023-03-30T09:01:14;8.47;;;2.10;;
4051;SDS011;2040;50.924;11.604;2023-03-30T09:03:47;2.83;;;1.63;;
4051;SDS011;2040;50.924;11.604;2023-03-30T09:09:24;5.83;;;1.90;;
4051;SDS011;2040;50.924;11.604;2023-03-30T09:11:54;9.13;;;2.13;;
4051;SDS011;2040;50.924;11.604;2023-03-30T09:14:33;8.00;;;2.60;;
4051;SDS011;2040;50.924;11.604;2023-03-30T09:17:07;5.00;;;1.70;;
4051;SDS011;2040;50.924;11.604;2023-03-30T09:20:06;2.17;;;1.80;;
4051;SDS011;2040;50.924;11.604;2023-03-30T09:22:38;4.27;;;1.60;;
4051;SDS011;2040;50.924;11.604;2023-03-30T09:25:19;4.47;;;1.70;;
4051;SDS011;2040;50.924;11.604;2023-03-30T09:28:04;2.80;;;1.70;;
4051;SDS011;2040;50.924;11.604;2023-03-30T09:30:42;6.93;;;1.67;;
4051;SDS011;2040;50.924;11.604;2023-03-30T09:36:04;11.23;;;1.87;;
4051;SDS011;2040;50.924;11.604;2023-03-30T09:38:53;8.43;;;2.50;;
4051;SDS011;2040;50.924;11.604;2023-03-30T09:41:21;7.73;;;1.53;;
4051;SDS011;2040;50.924;11.604;2023-03-30T09:43:59;7.10;;;1.70;;
4051;SDS011;2040;50.924;11.604;2023-03-30T09:46:29;3.50;;;1.57;;
4051;SDS011;2040;50.924;11.604;2023-03-30T09:48:54;4.53;;;1.67;;
4051;SDS011;2040;50.924;11.604;2023-03-30T09:51:37;2.23;;;1.63;;
4051;SDS011;2040;50.924;11.604;2023-03-30T09:54:17;2.90;;;1.77;;
4051;SDS011;2040;50.924;11.604;2023-03-30T09:56:45;2.13;;;1.63;;
4051;SDS011;2040;50.924;11.604;2023-03-30T09:59:34;3.07;;;1.40;;
4051;SDS011;2040;50.924;11.604;2023-03-30T10:02:07;4.37;;;1.73;;
4051;SDS011;2040;50.924;11.604;2023-03-30T10:07:36;2.50;;;1.40;;
4051;SDS011;2040;50.924;11.604;2023-03-30T10:12:45;5.83;;;1.63;;
4051;SDS011;2040;50.924;11.604;2023-03-30T10:15:14;1.30;;;1.20;;
4051;SDS011;2040;50.924;11.604;2023-03-30T10:17:43;3.50;;;2.20;;
4051;SDS011;2040;50.924;11.604;2023-03-30T10:20:12;9.07;;;2.00;;
4051;SDS011;2040;50.924;11.604;2023-03-30T10:23:03;5.73;;;2.53;;
4051;SDS011;2040;50.924;11.604;2023-03-30T10:25:33;3.83;;;1.60;;
4051;SDS011;2040;50.924;11.604;2023-03-30T10:28:02;4.70;;;2.07;;
4051;SDS011;2040;50.924;11.604;2023-03-30T10:30:30;10.47;;;2.27;;
4051;SDS011;2040;50.924;11.604;2023-03-30T10:32:57;3.47;;;2.00;;
4051;SDS011;2040;50.924;11.604;2023-03-30T10:35:26;5.33;;;2.93;;
4051;SDS011;2040;50.924;11.604;2023-03-30T10:37:58;4.47;;;1.90;;
4051;SDS011;2040;50.924;11.604;2023-03-30T10:40:36;6.10;;;2.80;;
4051;SDS011;2040;50.924;11.604;2023-03-30T10:43:05;4.10;;;2.50;;
4051;SDS011;2040;50.924;11.604;2023-03-30T10:45:42;3.00;;;2.27;;
4051;SDS011;2040;50.924;11.604;2023-03-30T10:53:57;4.60;;;2.30;;
4051;SDS011;2040;50.924;11.604;2023-03-30T10:56:45;3.80;;;1.63;;
4051;SDS011;2040;50.924;11.604;2023-03-30T11:04:45;2.33;;;1.83;;
4051;SDS011;2040;50.924;11.604;2023-03-30T11:07:28;7.23;;;2.30;;
4051;SDS011;2040;50.924;11.604;2023-03-30T11:10:03;9.13;;;2.00;;
4051;SDS011;2040;50.924;11.604;2023-03-30T11:12:36;4.73;;;2.63;;
4051;SDS011;2040;50.924;11.604;2023-03-30T11:15:06;3.70;;;1.90;;
4051;SDS011;2040;50.924;11.604;2023-03-30T11:17:41;4.20;;;2.00;;
4051;SDS011;2040;50.924;11.604;2023-03-30T11:20:16;1.70;;;1.60;;
4051;SDS011;2040;50.924;11.604;2023-03-30T11:22:55;6.67;;;2.30;;
4051;SDS011;2040;50.924;11.604;2023-03-30T11:26:03;3.17;;;1.90;;
4051;SDS011;2040;50.924;11.604;2023-03-30T11:33:57;4.23;;;2.33;;
4051;SDS011;2040;50.924;11.604;2023-03-30T11:36:50;5.13;;;2.20;;
4051;SDS011;2040;50.924;11.604;2023-03-30T11:39:35;4.00;;;1.70;;
4051;SDS011;2040;50.924;11.604;2023-03-30T11:44:37;2.30;;;1.87;;
4051;SDS011;2040;50.924;11.604;2023-03-30T11:47:13;4.73;;;1.70;;
4051;SDS011;2040;50.924;11.604;2023-03-30T11:52:55;4.13;;;1.67;;
4051;SDS011;2040;50.924;11.604;2023-03-30T11:55:46;5.93;;;2.60;;
4051;SDS011;2040;50.924;11.604;2023-03-30T12:01:08;6.00;;;1.90;;
4051;SDS011;2040;50.924;11.604;2023-03-30T12:04:04;3.20;;;1.70;;
4051;SDS011;2040;50.924;11.604;2023-03-30T12:07:20;8.87;;;2.03;;
4051;SDS011;2040;50.924;11.604;2023-03-30T12:09:33;2.50;;;1.53;;
4051;SDS011;2040;50.924;11.604;2023-03-30T12:12:12;6.77;;;1.90;;
4051;SDS011;2040;50.924;11.604;2023-03-30T12:14:46;3.23;;;1.70;;
4051;SDS011;2040;50.924;11.604;2023-03-30T12:19:56;4.80;;;1.63;;
4051;SDS011;2040;50.924;11.604;2023-03-30T12:27:55;4.30;;;1.27;;
4051;SDS011;2040;50.924;11.604;2023-03-30T12:30:27;7.87;;;1.40;;
4051;SDS011;2040;50.924;11.604;2023-03-30T12:33:12;1.77;;;1.30;;
4051;SDS011;2040;50.924;11.604;2023-03-30T12:35:57;3.10;;;1.70;;
4051;SDS011;2040;50.924;11.604;2023-03-30T12:38:34;2.70;;;1.37;;
4051;SDS011;2040;50.924;11.604;2023-03-30T12:41:08;4.57;;;1.37;;
4051;SDS011;2040;50.924;11.604;2023-03-30T12:52:03;3.77;;;2.50;;
4051;SDS011;2040;50.924;11.604;2023-03-30T12:57:15;3.10;;;1.53;;
4051;SDS011;2040;50.924;11.604;2023-03-30T13:05:37;5.20;;;1.70;;
4051;SDS011;2040;50.924;11.604;2023-03-30T13:08:07;7.20;;;1.50;;
4051;SDS011;2040;50.924;11.604;2023-03-30T13:10:46;2.63;;;1.20;;
4051;SDS011;2040;50.924;11.604;2023-03-30T13:13:56;5.43;;;1.70;;
4051;SDS011;2040;50.924;11.604;2023-03-30T13:16:11;4.10;;;1.50;;
4051;SDS011;2040;50.924;11.604;2023-03-30T13:18:39;1.63;;;1.13;;
4051;SDS011;2040;50.924;11.604;2023-03-30T13:21:20;2.50;;;1.50;;
4051;SDS011;2040;50.924;11.604;2023-03-30T13:24:04;3.30;;;1.60;;
4051;SDS011;2040;50.924;11.604;2023-03-30T13:26:50;3.37;;;1.30;;
4051;SDS011;2040;50.924;11.604;2023-03-30T13:29:16;2.97;;;1.73;;
4051;SDS011;2040;50.924;11.604;2023-03-30T13:42:56;4.60;;;1.40;;
4051;SDS011;2040;50.924;11.604;2023-03-30T13:45:32;3.10;;;1.10;;
4051;SDS011;2040;50.924;11.604;2023-03-30T13:50:35;3.70;;;1.30;;
4051;SDS011;2040;50.924;11.604;2023-03-30T13:53:04;2.20;;;1.20;;
4051;SDS011;2040;50.924;11.604;2023-03-30T13:55:34;1.43;;;0.80;;
4051;SDS011;2040;50.924;11.604;2023-03-30T13:58:04;4.30;;;0.70;;
4051;SDS011;2040;50.924;11.604;2023-03-30T14:00:42;2.07;;;1.30;;
4051;SDS011;2040;50.924;11.604;2023-03-30T14:06:07;4.10;;;0.83;;
4051;SDS011;2040;50.924;11.604;2023-03-30T14:08:46;5.00;;;0.90;;
4051;SDS011;2040;50.924;11.604;2023-03-30T14:11:14;7.33;;;1.40;;
4051;SDS011;2040;50.924;11.604;2023-03-30T14:13:46;0.97;;;0.67;;
4051;SDS011;2040;50.924;11.604;2023-03-30T14:16:18;1.03;;;0.70;;
4051;SDS011;2040;50.924;11.604;2023-03-30T14:18:48;2.37;;;0.80;;
4051;SDS011;2040;50.924;11.604;2023-03-30T14:21:15;2.63;;;0.70;;
4051;SDS011;2040;50.924;11.604;2023-03-30T14:23:44;2.40;;;1.10;;
4051;SDS011;2040;50.924;11.604;2023-03-30T14:26:18;1.53;;;0.70;;
4051;SDS011;2040;50.924;11.604;2023-03-30T14:28:51;1.67;;;0.80;;
4051;SDS011;2040;50.924;11.604;2023-03-30T14:31:19;0.80;;;0.77;;
4051;SDS011;2040;50.924;11.604;2023-03-30T14:33:45;1.80;;;0.70;;
4051;SDS011;2040;50.924;11.604;2023-03-30T14:36:13;1.27;;;0.70;;
4051;SDS011;2040;50.924;11.604;2023-03-30T14:38:41;3.53;;;0.90;;
4051;SDS011;2040;50.924;11.604;2023-03-30T14:41:19;1.13;;;0.83;;
4051;SDS011;2040;50.924;11.604;2023-03-30T14:46:19;1.97;;;0.70;;
4051;SDS011;2040;50.924;11.604;2023-03-30T14:48:46;1.43;;;0.70;;
4051;SDS011;2040;50.924;11.604;2023-03-30T14:51:24;1.10;;;0.70;;
4051;SDS011;2040;50.924;11.604;2023-03-30T14:53:52;1.67;;;0.70;;
4051;SDS011;2040;50.924;11.604;2023-03-30T14:56:19;3.43;;;0.70;;
4051;SDS011;2040;50.924;11.604;2023-03-30T14:58:46;0.77;;;0.77;;
4051;SDS011;2040;50.924;11.604;2023-03-30T15:01:15;0.60;;;0.60;;
4051;SDS011;2040;50.924;11.604;2023-03-30T15:03:47;3.30;;;0.70;;
4051;SDS011;2040;50.924;11.604;2023-03-30T15:06:14;2.47;;;1.13;;
4051;SDS011;2040;50.924;11.604;2023-03-30T15:08:46;2.17;;;0.53;;
4051;SDS011;2040;50.924;11.604;2023-03-30T15:11:30;0.63;;;0.60;;
4051;SDS011;2040;50.924;11.604;2023-03-30T15:13:58;3.43;;;0.80;;
4051;SDS011;2040;50.924;11.604;2023-03-30T15:16:28;0.60;;;0.60;;
4051;SDS011;2040;50.924;11.604;2023-03-30T15:19:39;1.73;;;0.93;;
4051;SDS011;2040;50.924;11.604;2023-03-30T15:21:55;0.70;;;0.70;;
4051;SDS011;2040;50.924;11.604;2023-03-30T15:24:29;1.33;;;0.60;;
4051;SDS011;2040;50.924;11.604;2023-03-30T15:26:57;1.07;;;0.53;;
4051;SDS011;2040;50.924;11.604;2023-03-30T15:29:26;1.17;;;0.80;;
4051;SDS011;2040;50.924;11.604;2023-03-30T15:35:27;6.70;;;0.80;;
4051;SDS011;2040;50.924;11.604;2023-03-30T15:37:49;2.33;;;0.70;;
4051;SDS011;2040;50.924;11.604;2023-03-30T15:40:27;1.60;;;0.70;;
4051;SDS011;2040;50.924;11.604;2023-03-30T15:43:11;2.07;;;0.70;;
4051;SDS011;2040;50.924;11.604;2023-03-30T15:46:01;2.20;;;0.80;;
4051;SDS011;2040;50.924;11.604;2023-03-30T15:48:36;0.60;;;0.60;;
4051;SDS011;2040;50.924;11.604;2023-03-30T15:51:07;0.60;;;0.60;;
4051;SDS011;2040;50.924;11.604;2023-03-30T15:53:41;3.53;;;0.73;;
4051;SDS011;2040;50.924;11.604;2023-03-30T15:56:17;0.87;;;0.70;;
4051;SDS011;2040;50.924;11.604;2023-03-30T15:58:47;1.13;;;0.70;;
4051;SDS011;2040;50.924;11.604;2023-03-30T16:01:13;1.13;;;0.77;;
4051;SDS011;2040;50.924;11.604;2023-03-30T16:03:46;1.40;;;1.30;;
4051;SDS011;2040;50.924;11.604;2023-03-30T16:06:17;1.73;;;0.70;;
4051;SDS011;2040;50.924;11.604;2023-03-30T16:08:45;2.00;;;0.70;;
4051;SDS011;2040;50.924;11.604;2023-03-30T16:11:10;4.13;;;0.70;;
4051;SDS011;2040;50.924;11.604;2023-03-30T16:13:45;1.07;;;0.90;;
4051;SDS011;2040;50.924;11.604;2023-03-30T16:16:13;1.40;;;0.67;;
4051;SDS011;2040;50.924;11.604;2023-03-30T16:18:40;1.20;;;0.60;;
4051;SDS011;2040;50.924;11.604;2023-03-30T16:21:06;0.60;;;0.60;;
4051;SDS011;2040;50.924;11.604;2023-03-30T16:23:34;0.83;;;0.60;;
4051;SDS011;2040;50.924;11.604;2023-03-30T16:26:00;2.03;;;1.13;;
4051;SDS011;2040;50.924;11.604;2023-03-30T16:28:26;3.03;;;0.90;;
4051;SDS011;2040;50.924;11.604;2023-03-30T16:30:52;2.33;;;0.80;;
4051;SDS011;2040;50.924;11.604;2023-03-30T16:33:21;10.43;;;1.00;;
4051;SDS011;2040;50.924;11.604;2023-03-30T16:35:48;1.40;;;0.70;;
4051;SDS011;2040;50.924;11.604;2023-03-30T16:38:14;1.03;;;0.70;;
4051;SDS011;2040;50.924;11.604;2023-03-30T16:40:46;1.17;;;0.73;;
4051;SDS011;2040;50.924;11.604;2023-03-30T16:43:15;2.20;;;1.00;;
4051;SDS011;2040;50.924;11.604;2023-03-30T16:45:41;1.90;;;0.70;;
4051;SDS011;2040;50.924;11.604;2023-03-30T16:48:06;2.27;;;0.80;;
4051;SDS011;2040;50.924;11.604;2023-03-30T16:53:08;2.10;;;0.93;;
4051;SDS011;2040;50.924;11.604;2023-03-30T16:55:34;6.20;;;1.00;;
4051;SDS011;2040;50.924;11.604;2023-03-30T16:58:00;1.57;;;0.87;;
4051;SDS011;2040;50.924;11.604;2023-03-30T17:00:31;0.80;;;0.70;;
4051;SDS011;2040;50.924;11.604;2023-03-30T17:03:01;1.27;;;0.70;;
4051;SDS011;2040;50.924;11.604;2023-03-30T17:05:27;2.53;;;0.70;;
4051;SDS011;2040;50.924;11.604;2023-03-30T17:07:53;1.47;;;0.70;;
4051;SDS011;2040;50.924;11.604;2023-03-30T17:10:25;2.73;;;1.17;;
4051;SDS011;2040;50.924;11.604;2023-03-30T17:12:53;6.23;;;0.90;;
4051;SDS011;2040;50.924;11.604;2023-03-30T17:15:20;1.77;;;0.80;;
4051;SDS011;2040;50.924;11.604;2023-03-30T17:17:47;0.80;;;0.70;;
4051;SDS011;2040;50.924;11.604;2023-03-30T17:20:24;0.60;;;0.60;;
4051;SDS011;2040;50.924;11.604;2023-03-30T17:22:56;1.50;;;0.87;;
4051;SDS011;2040;50.924;11.604;2023-03-30T17:25:22;1.83;;;0.70;;
4051;SDS011;2040;50.924;11.604;2023-03-30T17:27:50;0.90;;;0.80;;